createdAt,value
2022-12-19T00:01:06.211Z,21.37
2022-12-19T00:02:07.879Z,21.80
2022-12-19T00:03:09.549Z,23.30
2022-12-19T00:04:12.704Z,26.67
2022-12-19T00:05:14.315Z,25.20
2022-12-19T00:06:18.651Z,22.40
2022-12-19T00:07:20.147Z,25.47
2022-12-19T00:08:21.720Z,22.67
2022-12-19T00:09:23.271Z,22.30
2022-12-19T00:10:24.906Z,21.40
2022-12-19T00:11:28.199Z,24.73
2022-12-19T00:12:29.775Z,27.00
2022-12-19T00:13:35.275Z,23.40
2022-12-19T00:14:42.758Z,22.73
2022-12-19T00:15:44.292Z,22.63
2022-12-19T00:16:46.158Z,20.00
2022-12-19T00:17:47.791Z,20.03
2022-12-19T00:18:50.729Z,22.77
2022-12-19T00:19:56.311Z,23.63
2022-12-19T00:21:00.603Z,20.30
2022-12-19T00:22:02.213Z,22.00
2022-12-19T00:23:03.771Z,22.23
2022-12-19T00:24:20.823Z,22.00
2022-12-19T00:25:23.042Z,20.77
2022-12-19T00:26:30.811Z,21.83
2022-12-19T00:27:36.470Z,25.57
2022-12-19T00:28:38.563Z,24.40
2022-12-19T00:29:40.078Z,23.03
2022-12-19T00:30:41.634Z,22.67
2022-12-19T00:31:43.434Z,24.37
2022-12-19T00:32:45.008Z,22.17
2022-12-19T00:33:47.808Z,22.83
2022-12-19T00:34:49.320Z,21.77
2022-12-19T00:35:50.816Z,20.40
2022-12-19T00:36:52.348Z,22.90
2022-12-19T00:37:53.938Z,20.57
2022-12-19T00:38:57.485Z,26.20
2022-12-19T00:39:58.992Z,23.23
2022-12-19T00:41:08.162Z,24.53
2022-12-19T00:42:09.708Z,20.50
2022-12-19T00:43:11.209Z,22.03
2022-12-19T00:44:16.035Z,21.17
2022-12-19T00:45:17.554Z,22.77
2022-12-19T00:46:19.199Z,21.80
2022-12-19T00:47:20.739Z,20.87
2022-12-19T00:48:22.271Z,22.93
2022-12-19T00:49:23.935Z,23.03
2022-12-19T00:50:25.453Z,23.53
2022-12-19T00:51:29.612Z,23.30
2022-12-19T00:52:31.135Z,25.80
2022-12-19T00:53:34.847Z,23.73
2022-12-19T00:54:36.435Z,23.30
2022-12-19T00:55:39.079Z,25.37
2022-12-19T00:56:40.643Z,21.93
2022-12-19T00:57:42.143Z,23.50
2022-12-19T00:58:47.104Z,22.20
2022-12-19T00:59:49.079Z,24.33
2022-12-19T01:00:50.706Z,23.50
2022-12-19T01:01:52.393Z,22.00
2022-12-19T01:02:54.177Z,21.33
2022-12-19T01:04:27.360Z,22.90
2022-12-19T01:05:19.990Z,24.17
2022-12-19T01:06:22.055Z,22.10
2022-12-19T01:07:23.617Z,27.30
2022-12-19T01:08:25.170Z,20.80
2022-12-19T01:09:27.835Z,21.00
2022-12-19T01:10:29.414Z,22.03
2022-12-19T01:11:49.191Z,24.77
2022-12-19T01:12:50.751Z,23.23
2022-12-19T01:13:52.292Z,24.23
2022-12-19T01:15:03.992Z,19.90
2022-12-19T01:16:09.124Z,21.50
2022-12-19T01:17:11.152Z,20.93
2022-12-19T01:18:13.669Z,21.90
2022-12-19T01:19:15.191Z,22.10
2022-12-19T01:20:21.210Z,22.90
2022-12-19T01:21:30.998Z,22.83
2022-12-19T01:22:32.733Z,21.93
2022-12-19T01:23:35.818Z,20.97
2022-12-19T01:24:37.344Z,21.30
2022-12-19T01:25:40.134Z,23.83
2022-12-19T01:26:47.293Z,22.10
2022-12-19T01:27:48.804Z,21.43
2022-12-19T01:28:50.358Z,26.97
2022-12-19T01:29:53.027Z,24.67
2022-12-19T01:30:54.755Z,25.03
2022-12-19T01:31:56.283Z,25.97
2022-12-19T01:32:58.935Z,23.03
2022-12-19T01:34:01.399Z,23.63
2022-12-19T01:35:03.664Z,26.77
2022-12-19T01:36:07.769Z,27.33
2022-12-19T01:37:09.392Z,20.70
2022-12-19T01:38:15.854Z,22.57
2022-12-19T01:39:17.355Z,21.87
2022-12-19T01:40:20.330Z,23.87
2022-12-19T01:41:21.870Z,29.97
2022-12-19T01:42:24.348Z,22.37
2022-12-19T01:43:30.712Z,23.47
2022-12-19T01:44:32.219Z,21.67
2022-12-19T01:45:37.411Z,23.83
2022-12-19T01:46:46.057Z,25.07
2022-12-19T01:48:17.000Z,23.97
2022-12-19T01:49:27.992Z,23.07
2022-12-19T01:50:32.442Z,23.07
2022-12-19T01:51:43.276Z,24.00
2022-12-19T01:52:45.325Z,22.67
2022-12-19T01:53:54.459Z,23.83
2022-12-19T01:54:56.080Z,22.60
2022-12-19T01:56:09.529Z,23.57
2022-12-19T01:57:14.458Z,22.83
2022-12-19T01:58:16.746Z,24.53
2022-12-19T01:59:34.045Z,23.30
2022-12-19T02:00:35.748Z,24.63
2022-12-19T02:01:50.880Z,21.47
2022-12-19T02:03:28.380Z,21.57
2022-12-19T02:04:31.973Z,24.47
2022-12-19T02:05:34.166Z,24.20
2022-12-19T02:06:36.251Z,24.80
2022-12-19T02:07:39.903Z,23.80
2022-12-19T02:08:44.035Z,23.90
2022-12-19T02:09:52.444Z,20.73
2022-12-19T02:10:58.622Z,24.40
2022-12-19T02:12:00.940Z,24.47
2022-12-19T02:13:02.840Z,24.33
2022-12-19T02:14:04.572Z,21.33
2022-12-19T02:15:07.400Z,22.93
2022-12-19T02:16:33.338Z,23.80
2022-12-19T02:17:43.874Z,24.30
2022-12-19T02:19:11.236Z,24.37
2022-12-19T02:20:52.801Z,24.20
2022-12-19T02:22:17.468Z,23.77
2022-12-19T02:23:41.821Z,23.90
2022-12-19T02:25:01.608Z,23.63
2022-12-19T02:26:05.967Z,21.37
2022-12-19T02:27:40.348Z,24.80
2022-12-19T02:28:51.279Z,23.73
2022-12-19T02:30:02.829Z,26.20
2022-12-19T02:31:23.449Z,27.97
2022-12-19T02:32:38.957Z,29.90
2022-12-19T02:33:40.447Z,22.60
2022-12-19T02:34:55.543Z,29.50
2022-12-19T02:36:06.674Z,26.47
2022-12-19T02:37:13.763Z,32.97
2022-12-19T02:38:26.117Z,28.87
2022-12-19T02:39:49.505Z,24.40
2022-12-19T02:41:04.316Z,27.70
2022-12-19T02:42:09.784Z,27.10
2022-12-19T02:43:15.758Z,26.90
2022-12-19T02:44:33.104Z,23.57
2022-12-19T02:45:37.888Z,23.37
2022-12-19T02:46:41.505Z,26.63
2022-12-19T02:47:45.096Z,24.77
2022-12-19T02:48:47.613Z,27.40
2022-12-19T02:49:49.392Z,24.47
2022-12-19T02:50:50.924Z,26.47
2022-12-19T02:51:52.580Z,25.30
2022-12-19T02:52:54.239Z,25.43
2022-12-19T02:53:55.914Z,25.67
2022-12-19T02:55:01.648Z,25.67
2022-12-19T02:56:27.428Z,22.93
2022-12-19T02:57:47.451Z,24.03
2022-12-19T02:59:18.399Z,24.70
2022-12-19T03:00:25.813Z,25.03
2022-12-19T03:01:41.733Z,25.67
2022-12-19T03:03:00.576Z,24.67
2022-12-19T03:04:21.542Z,25.30
2022-12-19T03:05:41.923Z,28.53
2022-12-19T03:06:53.907Z,30.53
2022-12-19T03:08:34.066Z,25.23
2022-12-19T03:10:07.857Z,28.33
2022-12-19T03:11:14.801Z,27.60
2022-12-19T03:12:25.346Z,29.23
2022-12-19T03:13:35.229Z,24.73
2022-12-19T03:14:37.689Z,24.17
2022-12-19T03:15:40.482Z,25.57
2022-12-19T03:16:42.247Z,24.50
2022-12-19T03:17:44.011Z,24.83
2022-12-19T03:18:45.923Z,27.10
2022-12-19T03:19:47.595Z,25.80
2022-12-19T03:21:02.651Z,26.70
2022-12-19T03:22:04.460Z,27.13
2022-12-19T03:23:06.521Z,25.83
2022-12-19T03:24:11.754Z,27.10
2022-12-19T03:25:13.337Z,23.73
2022-12-19T03:26:18.541Z,26.43
2022-12-19T03:27:26.437Z,31.87
2022-12-19T03:28:46.023Z,26.10
2022-12-19T03:30:16.915Z,24.17
2022-12-19T03:31:22.133Z,26.50
2022-12-19T03:32:25.290Z,30.33
2022-12-19T03:33:29.671Z,24.47
2022-12-19T03:34:49.497Z,25.03
2022-12-19T03:35:52.879Z,25.47
2022-12-19T03:36:58.748Z,23.37
2022-12-19T03:38:03.771Z,25.03
2022-12-19T03:39:07.736Z,23.40
2022-12-19T03:40:15.694Z,26.90
2022-12-19T03:41:42.745Z,22.73
2022-12-19T03:43:06.016Z,27.97
2022-12-19T03:44:11.329Z,24.10
2022-12-19T03:45:17.735Z,31.10
2022-12-19T03:46:25.603Z,30.33
2022-12-19T03:47:50.308Z,27.93
2022-12-19T03:48:54.613Z,26.13
2022-12-19T03:49:56.319Z,27.93
2022-12-19T03:51:19.274Z,27.43
2022-12-19T03:52:38.630Z,23.73
2022-12-19T03:53:55.372Z,25.93
2022-12-19T03:55:35.041Z,23.00
2022-12-19T03:56:45.568Z,26.23
2022-12-19T03:57:50.471Z,25.03
2022-12-19T03:59:01.521Z,23.67
2022-12-19T04:00:08.161Z,25.83
2022-12-19T04:01:10.043Z,24.47
2022-12-19T04:02:15.549Z,27.70
2022-12-19T04:03:18.374Z,26.13
2022-12-19T04:04:21.755Z,23.13
2022-12-19T04:05:26.166Z,26.27
2022-12-19T04:06:32.133Z,25.87
2022-12-19T04:07:34.932Z,24.63
2022-12-19T04:08:36.830Z,27.37
2022-12-19T04:09:41.245Z,27.70
2022-12-19T04:10:54.248Z,25.60
2022-12-19T04:12:09.862Z,24.07
2022-12-19T04:13:16.999Z,27.53
2022-12-19T04:14:27.733Z,25.50
2022-12-19T04:15:50.341Z,26.37
2022-12-19T04:17:03.661Z,29.73
2022-12-19T04:18:08.332Z,25.57
2022-12-19T04:19:19.190Z,24.83
2022-12-19T04:20:24.427Z,25.10
2022-12-19T04:21:32.625Z,31.97
2022-12-19T04:22:42.533Z,29.27
2022-12-19T04:23:49.560Z,31.60
2022-12-19T04:24:54.006Z,27.53
2022-12-19T04:26:01.308Z,26.90
2022-12-19T04:27:06.717Z,28.00
2022-12-19T04:28:18.554Z,26.53
2022-12-19T04:29:20.504Z,30.63
2022-12-19T04:30:22.130Z,27.17
2022-12-19T04:31:24.226Z,30.60
2022-12-19T04:32:27.300Z,32.07
2022-12-19T04:33:28.808Z,29.60
2022-12-19T04:34:33.459Z,26.53
2022-12-19T04:35:35.997Z,25.63
2022-12-19T04:36:37.761Z,26.23
2022-12-19T04:37:40.165Z,28.37
2022-12-19T04:38:41.788Z,27.77
2022-12-19T04:39:43.431Z,28.27
2022-12-19T04:40:44.997Z,28.40
2022-12-19T04:41:46.617Z,25.87
2022-12-19T04:42:48.132Z,24.07
2022-12-19T04:43:49.915Z,25.97
2022-12-19T04:44:51.551Z,24.37
2022-12-19T04:45:57.292Z,25.83
2022-12-19T04:46:59.317Z,25.37
2022-12-19T04:48:00.903Z,25.47
2022-12-19T04:49:02.467Z,25.40
2022-12-19T04:50:04.954Z,24.80
2022-12-19T04:51:06.705Z,22.90
2022-12-19T04:52:08.568Z,25.30
2022-12-19T04:53:10.313Z,25.93
2022-12-19T04:54:12.876Z,24.37
2022-12-19T04:55:14.549Z,25.27
2022-12-19T04:56:16.193Z,25.03
2022-12-19T04:57:17.762Z,26.83
2022-12-19T04:58:22.100Z,24.30
2022-12-19T04:59:23.959Z,24.07
2022-12-19T05:00:25.530Z,30.17
2022-12-19T05:01:27.459Z,22.50
2022-12-19T05:02:29.290Z,22.40
2022-12-19T05:03:31.315Z,26.43
2022-12-19T05:04:32.937Z,24.70
2022-12-19T05:05:34.510Z,27.87
2022-12-19T05:06:36.073Z,22.43
2022-12-19T05:07:37.586Z,26.20
2022-12-19T05:08:41.302Z,23.27
2022-12-19T05:09:42.873Z,24.70
2022-12-19T05:10:45.219Z,22.80
2022-12-19T05:11:47.304Z,25.23
2022-12-19T05:12:48.813Z,24.03
2022-12-19T05:13:50.475Z,24.10
2022-12-19T05:14:52.385Z,26.17
2022-12-19T05:16:02.702Z,23.37
2022-12-19T05:17:04.764Z,24.13
2022-12-19T05:18:06.338Z,24.87
2022-12-19T05:19:07.920Z,25.10
2022-12-19T05:20:09.922Z,24.13
2022-12-19T05:21:11.655Z,28.27
2022-12-19T05:22:13.248Z,22.50
2022-12-19T05:23:17.304Z,28.00
2022-12-19T05:24:19.627Z,24.50
2022-12-19T05:25:21.177Z,27.40
2022-12-19T05:26:22.842Z,23.77
2022-12-19T05:27:24.371Z,30.37
2022-12-19T05:28:26.228Z,22.07
2022-12-19T05:29:27.767Z,27.00
2022-12-19T05:30:29.324Z,25.13
2022-12-19T05:31:31.004Z,29.47
2022-12-19T05:32:33.748Z,25.10
2022-12-19T05:33:35.391Z,23.13
2022-12-19T05:34:37.013Z,28.17
2022-12-19T05:35:38.574Z,21.53
2022-12-19T05:36:40.125Z,23.13
2022-12-19T05:37:41.667Z,26.63
2022-12-19T05:38:43.580Z,28.47
2022-12-19T05:39:45.107Z,27.20
2022-12-19T05:40:46.682Z,24.93
2022-12-19T05:41:49.282Z,27.63
2022-12-19T05:42:50.982Z,23.57
2022-12-19T05:43:56.299Z,23.23
2022-12-19T05:44:57.956Z,22.00
2022-12-19T05:45:59.476Z,24.83
2022-12-19T05:47:01.112Z,23.27
2022-12-19T05:48:02.649Z,23.17
2022-12-19T05:49:04.303Z,26.43
2022-12-19T05:50:06.279Z,27.33
2022-12-19T05:51:08.219Z,25.73
2022-12-19T05:52:12.820Z,26.37
2022-12-19T05:53:14.776Z,23.23
2022-12-19T05:54:16.884Z,23.57
2022-12-19T05:55:18.493Z,23.07
2022-12-19T05:56:22.747Z,25.67
2022-12-19T05:57:24.295Z,25.40
2022-12-19T05:58:25.811Z,23.93
2022-12-19T05:59:27.324Z,25.73
2022-12-19T06:00:28.967Z,27.73
2022-12-19T06:01:30.846Z,26.20
2022-12-19T06:02:33.636Z,24.83
2022-12-19T06:03:35.754Z,23.47
2022-12-19T06:04:37.392Z,24.57
2022-12-19T06:05:39.022Z,24.00
2022-12-19T06:06:40.600Z,27.60
2022-12-19T06:07:42.189Z,24.47
2022-12-19T06:08:44.305Z,26.37
2022-12-19T06:09:45.862Z,25.93
2022-12-19T06:10:47.371Z,24.97
2022-12-19T06:11:48.867Z,25.33
2022-12-19T06:12:50.428Z,25.40
2022-12-19T06:13:52.596Z,26.30
2022-12-19T06:14:54.185Z,27.30
2022-12-19T06:16:02.851Z,26.03
2022-12-19T06:17:04.448Z,26.60
2022-12-19T06:18:06.034Z,26.27
2022-12-19T06:19:07.686Z,24.27
2022-12-19T06:20:09.841Z,25.47
2022-12-19T06:21:16.375Z,26.87
2022-12-19T06:22:17.922Z,26.40
2022-12-19T06:23:19.492Z,25.37
2022-12-19T06:24:21.450Z,30.80
2022-12-19T06:25:22.949Z,28.07
2022-12-19T06:26:24.638Z,27.77
2022-12-19T06:27:26.186Z,25.03
2022-12-19T06:28:28.808Z,25.43
2022-12-19T06:29:30.362Z,24.13
2022-12-19T06:30:32.402Z,23.50
2022-12-19T06:31:33.978Z,29.00
2022-12-19T06:32:38.067Z,26.43
2022-12-19T06:33:40.538Z,22.90
2022-12-19T06:36:16.459Z,31.90
2022-12-19T06:37:18.009Z,24.73
2022-12-19T06:38:19.544Z,25.60
2022-12-19T06:39:22.119Z,25.10
2022-12-19T06:40:42.258Z,24.17
2022-12-19T06:42:02.102Z,25.67
2022-12-19T06:43:03.707Z,24.23
2022-12-19T06:44:08.333Z,21.57
2022-12-19T06:45:10.875Z,25.70
2022-12-19T06:46:12.670Z,23.13
2022-12-19T06:47:14.368Z,26.50
2022-12-19T06:48:15.923Z,24.70
2022-12-19T06:49:17.440Z,27.73
2022-12-19T06:50:18.961Z,25.47
2022-12-19T06:51:21.030Z,25.57
2022-12-19T06:52:22.583Z,26.03
2022-12-19T06:53:24.286Z,27.13
2022-12-19T06:54:25.834Z,26.53
2022-12-19T06:55:27.542Z,23.87
2022-12-19T06:56:29.133Z,25.97
2022-12-19T06:57:30.770Z,28.50
2022-12-19T06:58:33.494Z,27.00
2022-12-19T06:59:35.053Z,23.97
2022-12-19T07:00:36.660Z,25.97
2022-12-19T07:02:15.457Z,23.60
2022-12-19T07:03:21.776Z,24.73
2022-12-19T07:04:37.520Z,25.10
2022-12-19T07:05:40.166Z,27.40
2022-12-19T07:06:47.327Z,27.03
2022-12-19T07:07:50.507Z,26.87
2022-12-19T07:08:53.351Z,26.63
2022-12-19T07:09:54.930Z,26.73
2022-12-19T07:10:57.354Z,24.77
2022-12-19T07:11:59.015Z,23.83
2022-12-19T07:13:00.648Z,26.90
2022-12-19T07:14:02.154Z,29.20
2022-12-19T07:15:05.193Z,28.20
2022-12-19T07:16:07.483Z,29.27
2022-12-19T07:17:09.154Z,25.47
2022-12-19T07:18:11.036Z,25.70
2022-12-19T07:19:13.055Z,26.53
2022-12-19T07:20:16.278Z,23.83
2022-12-19T07:21:17.920Z,27.77
2022-12-19T07:22:19.949Z,26.00
2022-12-19T07:23:22.552Z,25.87
2022-12-19T07:24:24.186Z,28.90
2022-12-19T07:25:25.780Z,30.47
2022-12-19T07:26:27.691Z,29.80
2022-12-19T07:27:35.484Z,26.00
2022-12-19T07:28:38.050Z,29.33
2022-12-19T07:29:39.571Z,25.33
2022-12-19T07:30:41.061Z,26.13
2022-12-19T07:31:42.716Z,32.23
2022-12-19T07:32:44.272Z,26.57
2022-12-19T07:33:45.819Z,22.93
2022-12-19T07:34:47.419Z,26.27
2022-12-19T07:35:49.140Z,25.53
2022-12-19T07:36:53.752Z,23.47
2022-12-19T07:37:55.400Z,26.43
2022-12-19T07:38:56.947Z,25.13
2022-12-19T07:39:58.641Z,25.20
2022-12-19T07:41:03.158Z,26.70
2022-12-19T07:42:05.023Z,25.13
2022-12-19T07:43:06.749Z,24.97
2022-12-19T07:44:08.829Z,23.20
2022-12-19T07:45:10.996Z,29.23
2022-12-19T07:46:12.668Z,27.60
2022-12-19T07:47:14.306Z,27.87
2022-12-19T07:48:15.895Z,29.37
2022-12-19T07:49:22.426Z,28.83
2022-12-19T07:50:24.374Z,26.57
2022-12-19T07:51:26.068Z,30.73
2022-12-19T07:52:27.905Z,24.93
2022-12-19T07:53:29.443Z,24.83
2022-12-19T07:54:30.955Z,27.83
2022-12-19T07:55:33.618Z,27.17
2022-12-19T07:56:35.177Z,24.87
2022-12-19T07:57:36.888Z,29.27
2022-12-19T07:58:38.433Z,22.93
2022-12-19T07:59:39.982Z,26.07
2022-12-19T08:00:41.535Z,26.70
2022-12-19T08:01:43.366Z,24.10
2022-12-19T08:02:45.156Z,26.73
2022-12-19T08:03:47.434Z,26.60
2022-12-19T08:04:48.997Z,27.43
2022-12-19T08:05:50.652Z,25.40
2022-12-19T08:06:52.209Z,25.93
2022-12-19T08:07:54.058Z,28.10
2022-12-19T08:08:55.958Z,28.30
2022-12-19T08:09:58.566Z,25.57
2022-12-19T08:11:16.839Z,25.57
2022-12-19T08:12:18.527Z,24.63
2022-12-19T08:13:20.152Z,23.83
2022-12-19T08:14:21.855Z,24.87
2022-12-19T08:15:23.410Z,25.03
2022-12-19T08:16:27.657Z,24.00
2022-12-19T08:17:29.261Z,25.07
2022-12-19T08:18:31.162Z,25.00
2022-12-19T08:19:32.745Z,23.00
2022-12-19T08:20:34.370Z,23.77
2022-12-19T08:21:35.945Z,26.23
2022-12-19T08:22:37.725Z,27.10
2022-12-19T08:23:39.732Z,26.43
2022-12-19T08:24:41.252Z,24.30
2022-12-19T08:25:42.888Z,29.87
2022-12-19T08:26:47.710Z,26.70
2022-12-19T08:27:49.521Z,24.90
2022-12-19T08:28:56.060Z,24.10
2022-12-19T08:29:57.650Z,24.63
2022-12-19T08:31:05.425Z,25.63
2022-12-19T08:32:06.989Z,22.57
2022-12-19T08:33:08.693Z,25.53
2022-12-19T08:34:10.321Z,22.87
2022-12-19T08:35:12.416Z,21.07
2022-12-19T08:36:16.932Z,21.33
2022-12-19T08:37:18.481Z,24.23
2022-12-19T08:38:20.039Z,22.70
2022-12-19T08:39:21.551Z,25.67
2022-12-19T08:40:23.628Z,22.23
2022-12-19T08:41:25.153Z,25.13
2022-12-19T08:42:26.685Z,25.73
2022-12-19T08:43:28.526Z,26.63
2022-12-19T08:44:30.114Z,22.50
2022-12-19T08:45:31.694Z,25.83
2022-12-19T08:46:33.292Z,27.57
2022-12-19T08:47:34.928Z,27.33
2022-12-19T08:48:36.866Z,23.47
2022-12-19T08:49:38.487Z,24.33
2022-12-19T08:50:40.090Z,21.37
2022-12-19T08:51:42.075Z,22.67
2022-12-19T08:52:43.672Z,20.17
2022-12-19T08:53:49.548Z,22.47
2022-12-19T08:54:51.102Z,24.07
2022-12-19T08:55:59.936Z,23.07
2022-12-19T08:57:01.445Z,21.43
2022-12-19T08:58:02.978Z,19.97
2022-12-19T08:59:05.685Z,21.33
2022-12-19T09:00:08.493Z,21.00
2022-12-19T09:01:14.589Z,23.07
2022-12-19T09:02:16.372Z,25.80
2022-12-19T09:03:18.669Z,22.40
2022-12-19T09:06:00.115Z,24.93
2022-12-19T09:06:03.592Z,24.17
2022-12-19T09:07:05.397Z,26.10
2022-12-19T09:08:08.275Z,24.93
2022-12-19T09:09:10.205Z,24.70
2022-12-19T09:10:11.813Z,23.33
2022-12-19T09:11:17.557Z,22.17
2022-12-19T09:12:19.416Z,25.13
2022-12-19T09:13:20.956Z,28.63
2022-12-19T09:14:22.518Z,26.13
2022-12-19T09:15:24.338Z,25.50
2022-12-19T09:16:28.150Z,23.50
2022-12-19T09:17:29.805Z,26.77
2022-12-19T09:18:32.168Z,23.53
2022-12-19T09:19:33.816Z,26.07
2022-12-19T09:20:35.354Z,20.67
2022-12-19T09:21:36.879Z,24.27
2022-12-19T09:22:38.446Z,25.97
2022-12-19T09:23:41.077Z,26.67
2022-12-19T09:24:42.707Z,20.73
2022-12-19T09:25:44.275Z,22.20
2022-12-19T09:26:46.162Z,24.90
2022-12-19T09:28:25.977Z,21.97
2022-12-19T09:29:19.997Z,25.33
2022-12-19T09:30:23.193Z,23.40
2022-12-19T09:31:25.754Z,24.73
2022-12-19T09:32:27.444Z,23.93
2022-12-19T09:33:30.720Z,22.70
2022-12-19T09:34:37.305Z,21.97
2022-12-19T09:35:48.825Z,24.33
2022-12-19T09:36:50.578Z,23.60
2022-12-19T09:37:56.628Z,22.73
2022-12-19T09:39:01.967Z,21.33
2022-12-19T09:40:03.846Z,24.07
2022-12-19T09:41:27.271Z,24.57
2022-12-19T09:42:31.616Z,20.50
2022-12-19T09:44:15.481Z,21.20
2022-12-19T09:46:18.952Z,21.73
2022-12-19T09:47:24.598Z,26.97
2022-12-19T09:48:26.174Z,22.17
2022-12-19T09:49:41.590Z,23.20
2022-12-19T09:51:10.230Z,25.17
2022-12-19T09:52:35.922Z,24.20
2022-12-19T09:53:54.158Z,22.20
2022-12-19T09:55:02.948Z,21.97
2022-12-19T09:56:12.235Z,22.33
2022-12-19T09:57:20.699Z,21.90
2022-12-19T09:58:58.435Z,24.87
2022-12-19T10:00:28.468Z,21.50
2022-12-19T10:01:36.236Z,19.50
2022-12-19T10:02:47.572Z,21.37
2022-12-19T10:04:02.440Z,21.77
2022-12-19T10:05:33.364Z,19.33
2022-12-19T10:07:21.336Z,19.40
2022-12-19T10:08:10.232Z,21.50
2022-12-19T10:10:52.871Z,18.33
2022-12-19T10:12:42.259Z,20.97
2022-12-19T10:13:21.472Z,19.77
2022-12-19T10:14:47.147Z,21.17
2022-12-19T10:16:00.590Z,20.53
2022-12-19T10:17:24.088Z,23.83
2022-12-19T10:18:56.487Z,18.10
2022-12-19T10:20:32.571Z,22.57
2022-12-19T10:22:35.582Z,23.13
2022-12-19T10:24:07.743Z,19.80
2022-12-19T10:25:09.942Z,21.23
2022-12-19T10:26:40.485Z,19.30
2022-12-19T10:27:58.746Z,20.37
2022-12-19T10:29:13.629Z,20.90
2022-12-19T10:30:22.940Z,18.57
2022-12-19T10:31:24.502Z,20.97
2022-12-19T10:32:36.894Z,19.97
2022-12-19T10:33:50.886Z,15.93
2022-12-19T10:34:53.495Z,19.80
2022-12-19T10:36:02.103Z,17.87
2022-12-19T10:37:30.856Z,19.27
2022-12-19T10:39:12.725Z,16.20
2022-12-19T10:40:28.349Z,17.90
2022-12-19T10:41:32.413Z,19.23
2022-12-19T10:42:49.035Z,18.13
2022-12-19T10:44:06.551Z,17.67
2022-12-19T10:45:19.065Z,14.93
2022-12-19T10:46:41.911Z,17.90
2022-12-19T10:47:43.864Z,18.30
2022-12-19T10:48:45.799Z,17.87
2022-12-19T10:49:47.463Z,15.27
2022-12-19T10:50:49.445Z,17.10
2022-12-19T10:52:03.365Z,19.43
2022-12-19T10:53:04.940Z,17.10
2022-12-19T10:54:06.784Z,18.20
2022-12-19T10:55:42.847Z,18.47
2022-12-19T10:56:44.783Z,18.03
2022-12-19T10:57:46.524Z,19.00
2022-12-19T10:58:54.883Z,18.90
2022-12-19T11:00:00.802Z,15.33
2022-12-19T11:01:09.786Z,15.93
2022-12-19T11:02:54.459Z,16.07
2022-12-19T11:04:29.408Z,16.73
2022-12-19T11:05:39.289Z,17.47
2022-12-19T11:06:45.869Z,17.80
2022-12-19T11:08:00.935Z,12.90
2022-12-19T11:09:25.621Z,16.60
2022-12-19T11:13:14.761Z,14.47
2022-12-19T11:13:16.602Z,14.33
2022-12-19T11:18:51.977Z,14.27
2022-12-19T11:20:45.737Z,15.73
2022-12-19T11:23:19.588Z,13.40
2022-12-19T11:26:27.112Z,15.23
2022-12-19T11:29:27.155Z,13.90
2022-12-19T11:29:34.432Z,13.00
2022-12-19T11:29:41.740Z,14.80
2022-12-19T11:29:42.228Z,13.97
2022-12-19T11:29:45.131Z,14.00
2022-12-19T11:30:36.678Z,13.53
2022-12-19T11:30:38.648Z,13.60
2022-12-19T11:32:48.143Z,14.60
2022-12-19T11:34:03.610Z,18.07
2022-12-19T11:35:24.886Z,12.40
2022-12-19T11:36:44.966Z,16.10
2022-12-19T11:37:55.961Z,13.23
2022-12-19T11:38:57.808Z,12.70
2022-12-19T11:40:32.636Z,13.13
2022-12-19T11:42:04.393Z,14.23
2022-12-19T11:44:51.061Z,15.00
2022-12-19T11:46:08.352Z,12.90
2022-12-19T11:47:44.263Z,13.97
2022-12-19T11:48:51.022Z,13.33
2022-12-19T11:50:01.443Z,13.67
2022-12-19T11:51:17.391Z,14.23
2022-12-19T11:54:32.067Z,11.33
2022-12-19T11:55:46.537Z,12.30
2022-12-19T11:56:48.297Z,12.93
2022-12-19T11:57:49.950Z,13.27
2022-12-19T11:59:02.677Z,12.83
2022-12-19T12:00:05.656Z,15.23
2022-12-19T12:01:29.216Z,13.20
2022-12-19T12:02:42.695Z,12.43
2022-12-19T12:04:05.561Z,17.43
2022-12-19T12:05:41.914Z,12.07
2022-12-19T12:06:52.105Z,12.73
2022-12-19T12:09:53.724Z,13.50
2022-12-19T12:13:50.297Z,15.93
2022-12-19T12:16:48.462Z,12.73
2022-12-19T12:21:39.520Z,14.50
2022-12-19T12:27:25.020Z,14.70
2022-12-19T12:29:56.769Z,12.67
2022-12-19T12:31:04.288Z,14.13
2022-12-19T12:31:09.190Z,16.30
2022-12-19T12:31:17.331Z,14.00
2022-12-19T12:31:17.980Z,13.60
2022-12-19T12:31:46.927Z,15.43
2022-12-19T12:31:48.515Z,14.47
2022-12-19T12:31:52.736Z,14.50
2022-12-19T12:31:57.753Z,12.43
2022-12-19T12:32:06.515Z,13.33
2022-12-19T12:35:46.392Z,13.73
2022-12-19T12:35:46.567Z,15.37
2022-12-19T12:39:18.292Z,12.83
2022-12-19T12:40:46.404Z,12.63
2022-12-19T12:42:06.147Z,12.97
2022-12-19T12:43:36.843Z,12.90
2022-12-19T12:44:45.476Z,13.50
2022-12-19T12:45:47.753Z,12.40
2022-12-19T12:46:59.012Z,11.37
2022-12-19T12:48:00.659Z,14.70
2022-12-19T12:49:04.784Z,14.73
2022-12-19T12:50:09.310Z,13.57
2022-12-19T12:51:11.881Z,13.90
2022-12-19T12:52:19.514Z,12.10
2022-12-19T12:53:25.524Z,14.20
2022-12-19T12:54:34.636Z,11.17
2022-12-19T12:55:41.872Z,11.93
2022-12-19T12:56:46.728Z,12.67
2022-12-19T12:57:48.342Z,14.07
2022-12-19T12:58:52.738Z,13.53
2022-12-19T13:00:17.961Z,12.67
2022-12-19T13:01:28.763Z,14.13
2022-12-19T13:02:33.126Z,13.93
2022-12-19T13:03:36.516Z,13.23
2022-12-19T13:05:00.281Z,13.03
2022-12-19T13:06:18.433Z,13.43
2022-12-19T13:07:28.792Z,13.80
2022-12-19T13:08:36.351Z,11.77
2022-12-19T13:09:38.563Z,12.70
2022-12-19T13:10:54.479Z,14.07
2022-12-19T13:12:36.375Z,13.80
2022-12-19T13:13:51.161Z,13.97
2022-12-19T13:14:52.809Z,13.57
2022-12-19T13:15:54.368Z,11.30
2022-12-19T13:16:56.093Z,12.23
2022-12-19T13:18:02.313Z,13.20
2022-12-19T13:19:24.159Z,12.60
2022-12-19T13:20:29.283Z,11.87
2022-12-19T13:22:07.433Z,12.33
2022-12-19T13:23:38.157Z,12.70
2022-12-19T13:24:52.958Z,12.80
2022-12-19T13:25:55.306Z,12.03
2022-12-19T13:26:56.889Z,11.43
2022-12-19T13:28:01.544Z,13.20
2022-12-19T13:29:26.699Z,11.00
2022-12-19T13:30:50.495Z,12.47
2022-12-19T13:32:15.471Z,13.77
2022-12-19T13:33:17.076Z,14.13
2022-12-19T13:34:19.547Z,13.70
2022-12-19T13:36:10.442Z,13.23
2022-12-19T13:39:55.538Z,13.10
2022-12-19T13:40:00.221Z,15.27
2022-12-19T13:40:09.050Z,14.50
2022-12-19T13:41:45.971Z,15.50
2022-12-19T13:43:12.822Z,14.80
2022-12-19T13:44:19.705Z,14.73
2022-12-19T13:45:24.587Z,13.77
2022-12-19T13:46:42.820Z,14.77
2022-12-19T13:47:45.510Z,14.40
2022-12-19T13:48:50.281Z,15.53
2022-12-19T13:49:52.559Z,15.57
2022-12-19T13:50:55.895Z,15.47
2022-12-19T13:51:58.787Z,16.33
2022-12-19T13:53:00.353Z,14.63
2022-12-19T13:54:01.881Z,15.13
2022-12-19T13:55:03.764Z,15.47
2022-12-19T13:56:13.839Z,17.10
2022-12-19T13:57:27.464Z,16.13
2022-12-19T13:58:35.085Z,16.77
2022-12-19T13:59:38.975Z,16.03
2022-12-19T14:00:43.084Z,15.23
2022-12-19T14:01:44.835Z,16.20
2022-12-19T14:02:58.866Z,15.17
2022-12-19T14:04:25.709Z,15.97
2022-12-19T14:05:44.472Z,16.77
2022-12-19T14:07:00.447Z,16.90
2022-12-19T14:08:07.762Z,14.37
2022-12-19T14:11:24.973Z,17.60
2022-12-19T14:11:35.591Z,14.20
2022-12-19T14:13:52.423Z,15.77
2022-12-19T14:14:37.259Z,15.27
2022-12-19T14:15:41.112Z,16.03
2022-12-19T14:16:45.195Z,15.67
2022-12-19T14:17:48.605Z,17.53
2022-12-19T14:18:50.596Z,17.20
2022-12-19T14:19:53.222Z,17.63
2022-12-19T14:22:04.608Z,13.90
2022-12-19T14:22:39.697Z,17.13
2022-12-19T14:23:43.535Z,17.33
2022-12-19T14:25:33.137Z,19.70
2022-12-19T14:28:18.107Z,16.40
2022-12-19T14:28:21.570Z,16.90
2022-12-19T14:29:45.022Z,16.70
2022-12-19T14:30:51.549Z,18.57
2022-12-19T14:32:33.258Z,16.80
2022-12-19T14:33:43.626Z,19.20
2022-12-19T14:35:03.975Z,18.27
2022-12-19T14:36:14.646Z,18.47
2022-12-19T14:38:03.041Z,18.80
2022-12-19T14:39:22.660Z,18.07
2022-12-19T14:40:23.186Z,19.60
2022-12-19T14:41:46.509Z,17.93
2022-12-19T14:43:58.724Z,16.77
2022-12-19T14:51:51.446Z,16.67
2022-12-19T14:52:25.239Z,18.33
2022-12-19T14:54:03.751Z,18.47
2022-12-19T14:54:10.263Z,18.77
2022-12-19T14:54:10.511Z,18.03
2022-12-19T14:54:41.913Z,19.03
2022-12-19T14:56:16.946Z,17.10
2022-12-19T14:57:04.324Z,17.57
2022-12-19T14:58:56.056Z,16.73
2022-12-19T14:59:44.108Z,19.17
2022-12-19T15:01:10.279Z,17.20
2022-12-19T15:02:27.923Z,18.53
2022-12-19T15:03:52.478Z,17.27
2022-12-19T15:05:16.955Z,20.13
2022-12-19T15:07:09.586Z,20.40